Accueil
METAR-TAF:

METAR-TAF

Aéroports :

Brescia Ghedi, Italie

latitude: 45-25N, longitude: 010-17E, altitude: 102 m

Observation

Le bulletin a été fait il y a 32 minutes, à 17:55 UTC
Vent 3 kt de nord-ouest
Température 6°C
Humidité 56%
Pression 1020 hPa
Visibilité 10 km ou plus
pas de nuages en-dessous de 1500 mètres et pas de cumulonimbus.

METAR: LIPL 311755Z 31003KT CAVOK 06/M02 Q1020 RMK SKC VIS MIN 9999 WIND THR31 31004KT WIND THR13 31003KT BLU

Heure: 20:27 (18:27 UTC)

Prévision

Le bulletin a été fait il y a 4 heures et 27 minutes, à 14:00 UTC
Prévision valable du 31 à 15 UTC au 31 à 24 UTC
Vent 3 kt de direction variable
Visibilité 10 km ou plus
Nuages épars à une hauteur de 4500 ft
Nuages épars à une hauteur de 8000 ft

TAF: LIPL 311400Z 3115/3124 VRB03KT 9999 SCT045 SCT080

Observations et prévisions météorologiques de plus de 4000 aéroports (messages METAR et TAF).

Les stations disponibles sont représentées par des disques jaunes et rouges sur la carte.

Passer la souris dessus pour voir le nom de la station.

Cliquer dessus pour voir les observations et prévisions météorologiques.

Pour changer de carte: cliquez sur les boutons verts avec une croix noire pour zoomer, sur le bouton vert avec un tiret pour effectuer un zoom arrière, ou sur les flèches vertes pour les cartes adjacentes.


METAR-TAF: